Time;durP1;ratioP1;P1;durP2;ratioP2;P2;SDS_P1;SDS_P2;PMS_P1;PMS_P2;Temp;Humidity;BMP_temperature;BMP_pressure;BME280_temperature;BME280_humidity;BME280_pressure;Samples;Min_cycle;Max_cycle;Signal;HPM_P1;HPM_P2
2023/01/04 00:00:31;;;;;;;16.73;13.95;;;7.60;99.90;;;;;;5034680;28;20466;-85
2023/01/04 00:02:56;;;;;;;16.40;14.27;;;7.80;99.90;;;;;;5034626;28;20060;-85
2023/01/04 00:05:22;;;;;;;23.67;16.70;;;7.60;99.90;;;;;;5016935;28;20116;-85
2023/01/04 00:07:48;;;;;;;23.70;17.83;;;7.50;99.90;;;;;;5034749;28;20013;-85
2023/01/04 00:10:13;;;;;;;20.58;14.93;;;7.50;99.90;;;;;;5034719;28;20072;-85
2023/01/04 00:12:39;;;;;;;20.17;15.20;;;7.40;99.90;;;;;;5034323;28;20021;-85
2023/01/04 00:15:05;;;;;;;30.45;23.23;;;7.40;99.90;;;;;;5016402;28;20025;-86
2023/01/04 00:17:31;;;;;;;40.72;30.95;;;7.00;99.90;;;;;;5035060;28;20378;-85
2023/01/04 00:19:56;;;;;;;31.75;23.42;;;7.20;99.90;;;;;;5034552;28;20029;-86
2023/01/04 00:22:22;;;;;;;21.35;17.45;;;6.80;99.90;;;;;;5033734;28;20028;-85
2023/01/04 00:24:48;;;;;;;20.20;15.93;;;6.80;99.90;;;;;;5034836;28;20033;-85
2023/01/04 00:27:13;;;;;;;19.98;15.52;;;6.70;99.90;;;;;;5034005;28;20052;-85
2023/01/04 00:29:39;;;;;;;20.65;15.30;;;6.60;99.90;;;;;;5034167;28;20049;-85
2023/01/04 00:32:04;;;;;;;17.50;15.23;;;6.60;99.90;;;;;;5034419;28;20812;-85
2023/01/04 00:34:30;;;;;;;19.60;15.32;;;6.60;99.90;;;;;;5034136;28;20026;-85
2023/01/04 00:36:56;;;;;;;19.67;15.95;;;6.70;99.90;;;;;;5034598;28;20080;-85
2023/01/04 00:39:21;;;;;;;21.10;17.10;;;6.70;99.90;;;;;;5033854;28;20056;-85
2023/01/04 00:41:49;;;;;;;20.13;16.52;;;6.70;99.90;;;;;;5033792;28;20037;-85
2023/01/04 00:44:16;;;;;;;22.80;18.02;;;6.70;99.90;;;;;;5034220;28;20031;-85
2023/01/04 00:46:42;;;;;;;21.27;18.40;;;6.70;99.90;;;;;;5033970;28;20033;-86
2023/01/04 00:49:10;;;;;;;28.98;20.77;;;6.60;99.90;;;;;;5033926;28;20026;-85
2023/01/04 00:51:38;;;;;;;28.60;21.58;;;6.60;99.90;;;;;;5033973;28;20092;-85
2023/01/04 00:54:05;;;;;;;29.83;22.50;;;6.50;99.90;;;;;;5033895;28;20470;-85
2023/01/04 00:56:32;;;;;;;32.85;23.08;;;6.40;99.90;;;;;;5033667;28;20029;-85
2023/01/04 00:58:59;;;;;;;33.35;24.00;;;6.50;99.90;;;;;;5033860;28;20053;-86
2023/01/04 01:01:27;;;;;;;30.65;24.30;;;6.10;99.90;;;;;;5033357;28;20462;-86
2023/01/04 01:03:54;;;;;;;31.73;24.10;;;6.40;99.90;;;;;;5015931;28;20113;-85
2023/01/04 01:06:20;;;;;;;32.78;24.17;;;6.80;99.90;;;;;;5033432;28;20052;-85
2023/01/04 01:08:46;;;;;;;29.00;23.42;;;6.40;99.90;;;;;;5033692;28;20022;-85
2023/01/04 01:11:12;;;;;;;30.63;22.63;;;6.40;99.90;;;;;;5015324;28;20041;-85
2023/01/04 01:13:38;;;;;;;35.03;25.02;;;6.60;99.90;;;;;;5015667;28;20029;-85
2023/01/04 01:16:06;;;;;;;31.73;24.30;;;6.40;99.90;;;;;;5015571;28;20052;-85
2023/01/04 01:18:37;;;;;;;43.58;32.20;;;6.40;99.90;;;;;;5033403;28;20482;-85
2023/01/04 01:21:12;;;;;;;39.45;28.33;;;6.30;99.90;;;;;;5033407;28;20017;-85
2023/01/04 01:23:37;;;;;;;37.08;28.48;;;6.30;99.90;;;;;;5032981;28;20030;-85
2023/01/04 01:26:05;;;;;;;34.50;25.60;;;6.30;99.90;;;;;;5033610;28;20029;-85
2023/01/04 01:28:32;;;;;;;33.35;23.50;;;6.30;99.90;;;;;;5032694;28;20022;-86
2023/01/04 01:30:58;;;;;;;30.23;21.90;;;6.20;99.90;;;;;;5033263;28;20035;-85
2023/01/04 01:33:27;;;;;;;27.17;20.85;;;6.20;99.90;;;;;;5032900;28;20104;-85
2023/01/04 01:35:53;;;;;;;30.83;22.50;;;6.20;99.90;;;;;;5032133;28;20437;-85
2023/01/04 01:38:18;;;;;;;32.03;23.20;;;6.20;99.90;;;;;;5032681;28;20022;-85
2023/01/04 01:40:44;;;;;;;41.15;32.00;;;6.10;99.90;;;;;;5033174;28;20030;-85
2023/01/04 01:43:22;;;;;;;47.28;34.28;;;6.10;99.90;;;;;;5032878;28;20021;-85
2023/01/04 01:51:40;;;;;;;39.47;29.90;;;6.30;99.90;;;;;;5289032;22;20052;-94
2023/01/04 01:54:11;;;;;;;39.35;30.30;;;6.30;99.90;;;;;;5053392;28;20025;-94
2023/01/04 01:56:39;;;;;;;42.85;33.13;;;6.30;99.90;;;;;;5054607;28;20116;-94
2023/01/04 01:59:06;;;;;;;39.25;28.92;;;6.50;99.90;;;;;;5053062;28;20415;-95
2023/01/04 02:01:32;;;;;;;38.65;27.15;;;6.30;99.90;;;;;;5054014;28;20047;-93
2023/01/04 02:03:58;;;;;;;47.03;28.45;;;6.20;99.90;;;;;;5054043;28;20557;-94
2023/01/04 02:06:32;;;;;;;50.20;29.35;;;6.10;99.90;;;;;;5054285;28;20033;-94
2023/01/04 02:09:00;;;;;;;52.75;29.02;;;6.00;99.90;;;;;;5053982;28;20021;-93
2023/01/04 02:11:26;;;;;;;43.35;27.77;;;5.90;99.90;;;;;;5054046;28;20116;-93
2023/01/04 02:17:13;;;;;;;42.50;27.85;;;6.10;99.90;;;;;;5054188;28;20079;-93
2023/01/04 02:19:45;;;;;;;39.67;27.23;;;6.20;99.90;;;;;;5054184;28;20043;-94
2023/01/04 02:22:39;;;;;;;57.42;29.10;;;6.30;99.90;;;;;;5053538;28;20470;-95
2023/01/04 02:25:39;;;;;;;135.77;31.33;;;6.40;99.90;;;;;;5054252;28;20040;-94
2023/01/04 02:28:26;;;;;;;59.47;28.85;;;6.60;99.90;;;;;;5053582;28;20481;-94
2023/01/04 02:31:16;;;;;;;81.50;27.40;;;6.70;99.90;;;;;;5052859;28;20099;-93
2023/01/04 02:34:05;;;;;;;131.43;25.73;;;6.80;99.90;;;;;;5053561;28;20021;-94
2023/01/04 02:37:14;;;;;;;159.15;24.10;;;6.70;99.90;;;;;;5052744;28;20508;-93
2023/01/04 02:40:09;;;;;;;127.72;23.15;;;6.60;99.90;;;;;;4973590;28;20038;-93
2023/01/04 02:45:31;;;;;;;88.25;26.92;;;6.60;99.90;;;;;;4954310;28;20123;-93
2023/01/04 02:50:51;;;;;;;111.10;25.48;;;6.80;99.90;;;;;;4957500;29;20075;-93
2023/01/04 02:53:38;;;;;;;116.40;26.00;;;6.90;99.90;;;;;;4942334;29;20122;-94
2023/01/04 02:56:19;;;;;;;143.50;26.10;;;6.80;99.90;;;;;;4977004;28;20031;-94
2023/01/04 02:59:09;;;;;;;110.57;25.75;;;6.70;99.90;;;;;;4961021;28;20023;-94
2023/01/04 03:08:07;;;;;;;95.70;23.85;;;6.60;99.90;;;;;;4977465;28;20100;-94
2023/01/04 03:10:48;;;;;;;96.32;24.35;;;6.70;99.90;;;;;;4976760;28;20514;-94
2023/01/04 03:13:20;;;;;;;95.90;23.92;;;6.70;99.90;;;;;;5002813;28;20045;-94
2023/01/04 03:15:53;;;;;;;89.57;24.17;;;6.70;99.90;;;;;;5057365;28;20021;-94
2023/01/04 03:18:25;;;;;;;99.32;24.33;;;6.60;99.90;;;;;;5056398;28;20074;-94
2023/01/04 03:20:52;;;;;;;67.47;23.48;;;6.70;99.90;;;;;;5056773;28;20037;-94
2023/01/04 03:37:47;;;;;;;82.32;24.95;;;6.90;99.90;;;;;;5057253;28;20095;-94
2023/01/04 03:48:47;;;;;;;87.45;26.58;;;6.80;99.90;;;;;;5056421;28;20050;-94
2023/01/04 03:51:18;;;;;;;66.03;24.40;;;6.60;99.90;;;;;;5056631;28;20052;-94
2023/01/04 03:54:11;;;;;;;68.13;24.67;;;6.80;99.90;;;;;;5055424;28;20029;-94
2023/01/04 03:56:43;;;;;;;78.40;26.55;;;6.90;99.90;;;;;;5055958;28;20072;-94
2023/01/04 03:59:10;;;;;;;112.15;26.58;;;7.00;99.90;;;;;;5054518;28;20092;-94
2023/01/04 04:01:36;;;;;;;104.43;28.35;;;7.10;99.90;;;;;;5057130;28;20463;-94
2023/01/04 04:09:30;;;;;;;68.43;24.73;;;7.00;99.90;;;;;;5056599;28;20059;-94
2023/01/04 04:11:57;;;;;;;64.13;24.88;;;7.00;99.90;;;;;;5056201;28;20033;-94
2023/01/04 04:14:23;;;;;;;147.73;27.23;;;6.90;99.90;;;;;;5055298;28;20112;-93
2023/01/04 04:16:48;;;;;;;211.20;31.52;;;6.90;99.90;;;;;;5056466;28;20109;-94
2023/01/04 04:19:14;;;;;;;159.93;28.08;;;6.90;99.90;;;;;;5054877;28;20025;-94
2023/01/04 04:21:40;;;;;;;68.35;25.05;;;6.60;99.90;;;;;;5056293;28;20025;-94
2023/01/04 04:24:06;;;;;;;76.40;25.58;;;6.50;99.90;;;;;;5056005;28;20050;-93
2023/01/04 04:26:32;;;;;;;66.85;25.55;;;6.60;99.90;;;;;;5056551;28;20032;-94
2023/01/04 04:28:58;;;;;;;80.28;27.27;;;6.70;99.90;;;;;;5056118;28;20025;-94
2023/01/04 04:31:23;;;;;;;62.78;25.23;;;6.70;99.90;;;;;;5055770;28;20033;-93
2023/01/04 04:33:49;;;;;;;50.50;24.83;;;6.80;99.90;;;;;;5054308;28;20143;-94
2023/01/04 04:36:14;;;;;;;52.05;25.45;;;6.60;99.90;;;;;;5056099;28;20033;-94
2023/01/04 04:38:40;;;;;;;54.25;24.98;;;6.70;99.90;;;;;;5054727;28;20020;-93
2023/01/04 04:43:57;;;;;;;58.63;25.80;;;6.80;99.90;;;;;;5055813;28;20024;-93
2023/01/04 04:46:23;;;;;;;69.50;27.60;;;6.90;99.90;;;;;;5055350;28;20120;-94
2023/01/04 04:48:57;;;;;;;62.53;25.35;;;6.90;99.90;;;;;;5055225;28;20021;-94
2023/01/04 04:51:23;;;;;;;54.67;24.30;;;7.00;99.90;;;;;;5055219;28;20432;-94
2023/01/04 04:53:49;;;;;;;63.28;25.85;;;6.90;99.90;;;;;;5045626;28;20017;-93
2023/01/04 04:56:15;;;;;;;88.25;27.45;;;6.90;99.90;;;;;;5035897;28;20033;-94
2023/01/04 04:58:41;;;;;;;71.90;28.02;;;6.80;99.90;;;;;;5035565;28;20104;-94
2023/01/04 05:01:07;;;;;;;243.43;32.75;;;6.90;99.90;;;;;;5050636;28;20057;-94
2023/01/04 05:03:33;;;;;;;105.18;27.65;;;6.80;99.90;;;;;;5050579;28;20029;-94
2023/01/04 05:05:59;;;;;;;114.97;27.35;;;6.80;99.90;;;;;;5035441;28;20113;-94
2023/01/04 05:08:24;;;;;;;94.18;26.92;;;7.00;99.90;;;;;;5035531;28;20057;-94
2023/01/04 05:10:50;;;;;;;229.18;30.65;;;6.90;99.90;;;;;;5033784;28;20486;-93
2023/01/04 05:13:15;;;;;;;208.82;29.48;;;6.80;99.90;;;;;;5034022;28;20053;-94
2023/01/04 05:15:44;;;;;;;110.50;25.42;;;6.80;99.90;;;;;;5035079;28;20409;-93
2023/01/04 05:18:12;;;;;;;113.63;24.55;;;6.80;99.90;;;;;;5035120;28;20022;-94
2023/01/04 05:20:38;;;;;;;142.90;26.58;;;6.70;99.90;;;;;;5033885;28;20055;-95
2023/01/04 05:23:05;;;;;;;167.35;26.73;;;6.80;99.90;;;;;;5050153;28;20104;-94
2023/01/04 05:25:31;;;;;;;152.68;25.92;;;6.80;99.90;;;;;;5034526;28;20040;-95
2023/01/04 05:27:56;;;;;;;147.32;26.38;;;6.80;99.90;;;;;;5050676;28;20022;-94
2023/01/04 05:33:07;;;;;;;89.50;24.52;;;6.60;99.90;;;;;;5035268;28;20048;-92
2023/01/04 05:35:33;;;;;;;96.32;25.30;;;6.60;99.90;;;;;;5049965;28;20444;-94
2023/01/04 05:37:59;;;;;;;135.18;25.70;;;6.80;99.90;;;;;;5034666;28;20052;-94
2023/01/04 05:40:25;;;;;;;80.30;24.35;;;6.70;99.90;;;;;;5033455;28;20080;-93
2023/01/04 05:42:50;;;;;;;196.40;26.27;;;6.80;99.90;;;;;;5033363;28;20084;-94
2023/01/04 05:45:18;;;;;;;103.95;25.02;;;6.60;99.90;;;;;;5049902;28;20067;-94
2023/01/04 05:47:44;;;;;;;99.32;24.30;;;6.60;99.90;;;;;;5034547;28;20032;-95
2023/01/04 05:50:10;;;;;;;91.53;23.17;;;6.60;99.90;;;;;;5034813;28;20042;-94
2023/01/04 05:52:36;;;;;;;106.25;23.42;;;6.70;99.90;;;;;;5034044;28;20061;-93
2023/01/04 05:55:02;;;;;;;108.35;24.75;;;6.60;99.90;;;;;;5049922;28;20034;-94
2023/01/04 05:57:28;;;;;;;129.73;25.15;;;6.40;99.90;;;;;;5033272;28;20010;-94
2023/01/04 05:59:53;;;;;;;112.82;23.85;;;6.70;99.90;;;;;;5032900;28;20040;-94
2023/01/04 06:02:23;;;;;;;95.63;24.65;;;6.30;99.90;;;;;;5034537;28;21154;-94
2023/01/04 06:04:49;;;;;;;118.30;24.02;;;6.40;99.90;;;;;;5034322;28;20025;-94
2023/01/04 06:07:16;;;;;;;83.50;21.02;;;6.30;99.90;;;;;;5033661;28;20033;-92
2023/01/04 06:09:42;;;;;;;81.38;22.70;;;6.60;99.90;;;;;;5034461;28;20033;-94
2023/01/04 06:12:08;;;;;;;62.72;16.83;;;6.30;99.90;;;;;;5034162;28;20025;-93
2023/01/04 06:14:34;;;;;;;55.88;15.65;;;6.30;99.90;;;;;;5033876;28;20026;-94
2023/01/04 06:17:00;;;;;;;54.67;15.45;;;6.30;99.90;;;;;;5034408;28;20031;-94
2023/01/04 06:19:26;;;;;;;54.65;15.18;;;6.40;99.90;;;;;;5034496;28;20057;-94
2023/01/04 06:21:52;;;;;;;58.92;15.88;;;6.30;99.90;;;;;;5032261;28;20034;-94
2023/01/04 06:24:18;;;;;;;56.47;14.85;;;6.40;99.90;;;;;;5034116;28;20097;-94
2023/01/04 06:26:44;;;;;;;53.22;15.68;;;6.30;99.90;;;;;;5033021;28;20064;-93
2023/01/04 06:29:09;;;;;;;60.20;14.50;;;6.40;99.90;;;;;;5032219;28;20022;-94
2023/01/04 06:31:35;;;;;;;52.17;14.98;;;6.30;99.90;;;;;;5033703;28;20136;-93
2023/01/04 06:34:01;;;;;;;77.78;16.10;;;6.60;99.90;;;;;;5049347;28;20022;-94
2023/01/04 06:36:27;;;;;;;49.08;15.20;;;6.60;99.90;;;;;;5033760;28;20038;-95
2023/01/04 06:38:53;;;;;;;62.88;17.65;;;6.70;99.90;;;;;;5032717;28;20041;-95
2023/01/04 06:41:18;;;;;;;58.42;16.13;;;6.80;99.90;;;;;;5035098;28;20036;-94
2023/01/04 06:43:44;;;;;;;57.03;16.30;;;7.00;99.90;;;;;;5032885;28;20033;-93
2023/01/04 06:46:10;;;;;;;59.83;16.70;;;7.00;99.90;;;;;;5033735;28;20080;-94
2023/01/04 06:48:36;;;;;;;62.42;19.23;;;7.00;99.90;;;;;;5032793;28;20033;-93
2023/01/04 06:51:01;;;;;;;57.55;19.65;;;7.00;99.90;;;;;;5032593;28;20053;-93
2023/01/04 06:53:27;;;;;;;67.05;18.17;;;7.10;99.90;;;;;;5038824;28;20047;-94
2023/01/04 06:55:53;;;;;;;176.25;19.27;;;7.10;99.90;;;;;;5052123;28;20025;-93
2023/01/04 06:58:18;;;;;;;117.28;17.77;;;7.10;99.90;;;;;;5051259;28;20044;-92
2023/01/04 07:00:46;;;;;;;122.30;18.48;;;7.00;99.90;;;;;;5052206;28;20025;-92
2023/01/04 07:03:11;;;;;;;75.07;17.98;;;6.90;99.90;;;;;;5053164;28;20021;-94
2023/01/04 07:05:37;;;;;;;89.57;19.20;;;6.90;99.90;;;;;;5052999;28;20059;-93
2023/01/04 07:08:03;;;;;;;90.20;19.08;;;6.90;99.90;;;;;;5049514;28;20029;-92
2023/01/04 07:10:29;;;;;;;101.32;19.48;;;6.80;99.90;;;;;;5051774;28;20037;-95
2023/01/04 07:12:54;;;;;;;47.72;16.60;;;6.90;99.90;;;;;;5051533;28;20039;-94
2023/01/04 07:15:20;;;;;;;67.13;19.73;;;7.10;99.90;;;;;;5052350;28;20095;-93
2023/01/04 07:17:47;;;;;;;62.10;19.08;;;7.20;99.90;;;;;;5053634;28;20028;-94
2023/01/04 07:20:13;;;;;;;65.70;19.20;;;7.20;99.90;;;;;;5052045;28;20044;-94
2023/01/04 07:22:38;;;;;;;69.30;19.65;;;7.10;99.90;;;;;;5052648;28;20032;-94
2023/01/04 07:25:05;;;;;;;59.72;19.13;;;7.10;99.90;;;;;;5053109;28;20029;-93
2023/01/04 07:27:30;;;;;;;169.20;22.45;;;6.90;99.90;;;;;;5053111;28;20021;-93
2023/01/04 07:29:57;;;;;;;54.95;19.60;;;6.70;99.90;;;;;;5060316;28;20047;-94
2023/01/04 07:32:22;;;;;;;123.28;21.27;;;6.90;99.90;;;;;;5055789;28;20120;-94
2023/01/04 07:34:48;;;;;;;66.10;19.85;;;6.70;99.90;;;;;;5059028;28;20045;-93
2023/01/04 07:37:14;;;;;;;65.28;20.75;;;6.60;99.90;;;;;;5057558;28;20032;-95
2023/01/04 07:39:40;;;;;;;63.25;19.40;;;6.90;99.90;;;;;;5057566;28;20047;-93
2023/01/04 07:42:06;;;;;;;79.57;22.02;;;7.00;99.90;;;;;;5056662;28;20029;-92
2023/01/04 07:44:32;;;;;;;66.80;20.98;;;7.20;99.90;;;;;;5057689;28;20040;-94
2023/01/04 07:46:58;;;;;;;86.13;20.65;;;7.00;99.90;;;;;;5055142;28;20477;-93
2023/01/04 07:49:23;;;;;;;58.47;18.52;;;7.10;99.90;;;;;;5056239;28;20029;-93
2023/01/04 07:51:49;;;;;;;64.00;19.63;;;7.00;99.90;;;;;;5056657;28;20511;-93
2023/01/04 07:54:16;;;;;;;53.38;17.88;;;6.70;99.90;;;;;;5056705;28;20025;-93
2023/01/04 07:56:44;;;;;;;50.05;18.58;;;6.70;99.90;;;;;;5056875;28;20523;-93
2023/01/04 07:59:10;;;;;;;46.67;17.83;;;6.70;99.90;;;;;;5056616;28;20036;-92
2023/01/04 08:01:37;;;;;;;36.25;14.32;;;6.70;99.90;;;;;;5056508;28;20045;-92
2023/01/04 08:04:07;;;;;;;36.30;14.63;;;6.50;99.90;;;;;;5055165;28;20674;-92
2023/01/04 08:06:34;;;;;;;38.47;15.15;;;6.60;99.90;;;;;;5055693;28;20028;-92
2023/01/04 08:09:01;;;;;;;34.03;14.65;;;6.60;99.90;;;;;;5056210;28;20104;-93
2023/01/04 08:11:27;;;;;;;29.33;13.60;;;6.80;99.90;;;;;;5055889;28;20120;-91
2023/01/04 08:13:53;;;;;;;23.00;12.82;;;6.90;99.90;;;;;;5038746;28;20123;-92
2023/01/04 08:16:31;;;;;;;29.95;15.18;;;6.90;99.90;;;;;;5053562;28;20033;-91
2023/01/04 08:19:11;;;;;;;27.08;14.25;;;6.80;99.90;;;;;;5056974;28;20113;-92
2023/01/04 08:21:37;;;;;;;29.25;15.07;;;6.80;99.90;;;;;;5054655;28;20025;-92
2023/01/04 08:24:04;;;;;;;28.42;15.40;;;7.00;99.90;;;;;;5055620;28;20056;-92
2023/01/04 08:26:30;;;;;;;29.90;15.38;;;7.20;99.90;;;;;;5054879;28;20064;-92
2023/01/04 08:28:56;;;;;;;27.98;14.90;;;7.30;99.90;;;;;;5054798;28;20028;-92
2023/01/04 08:31:25;;;;;;;24.10;14.70;;;7.00;99.90;;;;;;5043351;28;20045;-92
2023/01/04 08:33:52;;;;;;;28.30;15.32;;;7.10;99.90;;;;;;5034672;28;20068;-93
2023/01/04 08:36:26;;;;;;;25.45;15.15;;;7.30;99.90;;;;;;5035835;28;20099;-92
2023/01/04 08:38:54;;;;;;;26.17;14.68;;;7.20;99.90;;;;;;5035765;28;20057;-92
2023/01/04 08:41:20;;;;;;;24.85;14.60;;;7.30;99.90;;;;;;5035592;28;20385;-92
2023/01/04 08:43:46;;;;;;;26.25;14.60;;;7.10;99.90;;;;;;5037215;28;20030;-93
2023/01/04 08:46:13;;;;;;;25.00;15.73;;;7.10;99.90;;;;;;5040014;28;20100;-93
2023/01/04 08:48:39;;;;;;;22.42;14.55;;;7.10;99.90;;;;;;5034800;28;20033;-92
2023/01/04 08:51:08;;;;;;;24.33;15.15;;;7.00;99.90;;;;;;5035697;28;20042;-92
2023/01/04 08:53:35;;;;;;;24.35;15.82;;;7.00;99.90;;;;;;5042892;28;20059;-93
2023/01/04 08:56:01;;;;;;;27.92;15.95;;;7.30;99.90;;;;;;5054994;28;20025;-92
2023/01/04 08:58:28;;;;;;;24.40;15.90;;;7.40;99.90;;;;;;5055470;28;20027;-92
2023/01/04 09:01:02;;;;;;;24.73;15.90;;;7.40;99.90;;;;;;5054843;28;20021;-93
2023/01/04 09:03:29;;;;;;;23.23;15.95;;;7.30;99.90;;;;;;5054696;28;20040;-93
2023/01/04 09:06:04;;;;;;;21.25;14.40;;;7.40;99.90;;;;;;5055324;28;20036;-93
2023/01/04 09:08:32;;;;;;;22.73;15.40;;;7.40;99.90;;;;;;5055218;28;20025;-92
2023/01/04 09:11:02;;;;;;;24.13;15.70;;;7.40;99.90;;;;;;5055607;28;20048;-92
2023/01/04 09:13:27;;;;;;;23.50;15.30;;;7.50;99.90;;;;;;5054342;28;20013;-93
2023/01/04 09:15:53;;;;;;;21.80;14.93;;;7.80;99.90;;;;;;5054424;28;20035;-93
2023/01/04 09:18:19;;;;;;;20.85;14.48;;;8.00;99.90;;;;;;5054047;28;20095;-93
2023/01/04 09:20:44;;;;;;;22.55;15.07;;;8.00;99.90;;;;;;5055217;28;20029;-93
2023/01/04 09:23:10;;;;;;;23.48;15.88;;;8.00;99.90;;;;;;5054596;28;20021;-93
2023/01/04 09:25:38;;;;;;;22.70;15.77;;;7.70;99.90;;;;;;5054936;28;20078;-94
2023/01/04 09:28:04;;;;;;;25.98;16.25;;;7.90;99.90;;;;;;5055313;28;20087;-94
2023/01/04 09:30:30;;;;;;;24.70;16.20;;;7.90;99.90;;;;;;5053894;28;20033;-93
2023/01/04 09:32:56;;;;;;;24.13;15.90;;;7.90;99.90;;;;;;5054989;28;20025;-93
2023/01/04 09:35:21;;;;;;;23.02;16.27;;;7.90;99.90;;;;;;5054068;28;20145;-93
2023/01/04 09:37:47;;;;;;;23.60;14.88;;;7.90;99.90;;;;;;5036849;28;20488;-93
2023/01/04 09:40:24;;;;;;;25.38;15.70;;;7.90;99.90;;;;;;5054866;28;20029;-93
2023/01/04 09:42:50;;;;;;;22.33;15.43;;;8.30;99.90;;;;;;5054972;28;20365;-94
2023/01/04 09:45:22;;;;;;;22.23;16.20;;;8.10;99.90;;;;;;5054089;28;20422;-94
2023/01/04 09:48:10;;;;;;;21.90;15.10;;;8.50;99.90;;;;;;5055185;28;20048;-94
2023/01/04 09:50:45;;;;;;;18.17;13.10;;;8.40;99.90;;;;;;5054651;28;20092;-93
2023/01/04 09:53:20;;;;;;;19.55;13.73;;;8.40;99.90;;;;;;5054669;28;20032;-94
2023/01/04 09:55:49;;;;;;;20.40;14.15;;;8.10;99.90;;;;;;5052955;28;20032;-94
2023/01/04 09:58:38;;;;;;;19.65;13.95;;;8.50;99.90;;;;;;5054667;28;20032;-93
2023/01/04 10:01:14;;;;;;;19.20;12.90;;;8.50;99.90;;;;;;5054505;28;20092;-95
2023/01/04 10:03:49;;;;;;;19.33;13.98;;;8.90;99.90;;;;;;5055060;28;20056;-95
2023/01/04 10:06:15;;;;;;;18.17;13.60;;;9.00;99.90;;;;;;5053284;28;20540;-93
2023/01/04 10:08:42;;;;;;;17.75;13.30;;;9.30;99.90;;;;;;5054703;28;20071;-95
2023/01/04 10:11:43;;;;;;;17.10;12.90;;;9.60;99.90;;;;;;5054690;28;20040;-95
2023/01/04 10:14:35;;;;;;;18.38;13.38;;;9.90;99.90;;;;;;5054278;28;20079;-93
2023/01/04 10:17:19;;;;;;;20.23;13.95;;;10.00;99.90;;;;;;5054386;28;20021;-95
2023/01/04 10:19:59;;;;;;;17.40;13.10;;;10.00;99.90;;;;;;5054696;28;20064;-95
2023/01/04 10:22:51;;;;;;;14.95;11.55;;;10.10;99.90;;;;;;5055094;28;20029;-95
2023/01/04 10:25:52;;;;;;;18.05;13.57;;;10.10;99.90;;;;;;4996391;28;20194;-95
2023/01/04 10:28:46;;;;;;;18.83;13.95;;;9.90;99.90;;;;;;5012879;28;20030;-95
2023/01/04 10:31:20;;;;;;;19.75;14.80;;;10.00;99.90;;;;;;5013043;28;20586;-96
2023/01/04 10:33:49;;;;;;;22.92;14.85;;;10.00;99.90;;;;;;5012542;28;20025;-96
2023/01/04 10:36:30;;;;;;;17.98;13.50;;;10.00;99.90;;;;;;5012384;28;20077;-94
2023/01/04 10:39:03;;;;;;;16.30;13.57;;;10.10;99.90;;;;;;5012788;28;20030;-96
2023/01/04 10:41:37;;;;;;;19.35;14.13;;;10.30;99.90;;;;;;5012926;28;20030;-95
2023/01/04 10:44:15;;;;;;;20.17;14.90;;;10.20;99.90;;;;;;4996257;28;20048;-95
2023/01/04 10:47:14;;;;;;;17.58;14.25;;;10.20;99.90;;;;;;5012666;28;20037;-94
2023/01/04 10:49:48;;;;;;;21.58;14.82;;;10.00;99.90;;;;;;5012014;28;20207;-95
2023/01/04 10:52:39;;;;;;;18.98;14.98;;;10.00;99.90;;;;;;4996113;28;20054;-94
2023/01/04 10:55:36;;;;;;;20.27;14.75;;;10.10;99.90;;;;;;5007002;28;20141;-95
2023/01/04 10:58:05;;;;;;;20.15;14.55;;;10.10;99.90;;;;;;5010995;28;20124;-95
2023/01/04 11:01:04;;;;;;;19.65;14.15;;;9.80;99.90;;;;;;5013028;28;20522;-95
2023/01/04 11:03:57;;;;;;;19.70;14.70;;;9.80;99.90;;;;;;5033924;28;20113;-95
2023/01/04 11:06:32;;;;;;;18.80;14.52;;;9.70;99.90;;;;;;5033971;28;20037;-94
2023/01/04 11:09:03;;;;;;;19.13;14.85;;;9.80;99.90;;;;;;5037776;28;20036;-95
2023/01/04 11:11:39;;;;;;;19.98;15.32;;;9.90;99.90;;;;;;5037053;28;20044;-96
2023/01/04 11:14:05;;;;;;;19.02;14.98;;;9.70;99.90;;;;;;5037839;28;20108;-95
2023/01/04 11:16:31;;;;;;;19.00;15.05;;;9.90;99.90;;;;;;5037807;28;20109;-95
2023/01/04 11:18:57;;;;;;;20.92;17.10;;;10.00;99.90;;;;;;5038763;28;20469;-96
2023/01/04 11:21:27;;;;;;;22.52;17.30;;;10.00;99.90;;;;;;5037080;28;20032;-95
2023/01/04 11:24:01;;;;;;;17.92;14.15;;;9.90;99.90;;;;;;5036792;28;20083;-96
2023/01/04 11:26:42;;;;;;;18.65;14.05;;;10.30;99.90;;;;;;5036540;28;20110;-95
2023/01/04 11:29:39;;;;;;;18.00;13.70;;;10.80;99.90;;;;;;5037994;28;20048;-96
2023/01/04 11:32:28;;;;;;;18.33;13.60;;;11.40;99.90;;;;;;5036501;28;20060;-95
2023/01/04 11:34:56;;;;;;;16.80;12.50;;;12.00;99.90;;;;;;5037255;28;20026;-95
2023/01/04 11:37:33;;;;;;;15.85;12.57;;;12.50;99.90;;;;;;5037476;28;20093;-95
2023/01/04 11:40:19;;;;;;;15.00;12.30;;;13.20;99.90;;;;;;5037923;28;20027;-96
2023/01/04 11:42:47;;;;;;;12.55;10.52;;;14.30;99.90;;;;;;5036968;28;20405;-95
2023/01/04 11:45:25;;;;;;;11.32;10.13;;;13.70;99.90;;;;;;5036100;28;20017;-96
2023/01/04 11:47:56;;;;;;;12.93;10.93;;;13.10;99.90;;;;;;5036666;28;20128;-95
2023/01/04 11:50:45;;;;;;;14.38;10.32;;;13.30;99.90;;;;;;5035982;28;20040;-96
2023/01/04 11:53:35;;;;;;;13.25;10.65;;;14.50;99.90;;;;;;5024059;28;20119;-96
2023/01/04 11:56:13;;;;;;;12.88;9.80;;;14.50;99.90;;;;;;5056307;28;20029;-95
2023/01/04 11:58:39;;;;;;;12.75;10.50;;;14.90;99.90;;;;;;5055680;28;20025;-96
2023/01/04 12:01:05;;;;;;;13.95;11.18;;;15.10;99.90;;;;;;5057790;28;20055;-95
2023/01/04 12:03:31;;;;;;;12.38;10.63;;;15.60;99.90;;;;;;5055547;28;20017;-95
2023/01/04 12:05:57;;;;;;;12.07;10.45;;;15.00;99.90;;;;;;5055934;28;20033;-96
2023/01/04 12:08:35;;;;;;;12.10;10.35;;;14.40;99.90;;;;;;5055652;28;20218;-96
2023/01/04 12:11:04;;;;;;;13.15;10.73;;;14.80;99.90;;;;;;5055562;28;20036;-96
2023/01/04 12:13:32;;;;;;;12.05;10.75;;;15.70;99.90;;;;;;5055513;28;20017;-95
2023/01/04 12:16:10;;;;;;;12.15;10.85;;;16.00;99.90;;;;;;5055546;28;20032;-96
2023/01/04 12:18:39;;;;;;;12.25;10.50;;;16.20;99.90;;;;;;5054772;28;20029;-96
2023/01/04 12:21:05;;;;;;;15.15;12.65;;;15.90;99.90;;;;;;5056834;28;20025;-95
2023/01/04 12:23:32;;;;;;;16.05;12.68;;;15.00;99.90;;;;;;5055708;28;20025;-95
2023/01/04 12:25:59;;;;;;;16.10;13.82;;;14.00;99.90;;;;;;5056350;28;20508;-96
2023/01/04 12:28:38;;;;;;;18.52;15.90;;;13.00;99.90;;;;;;5055654;28;20029;-95
2023/01/04 12:31:19;;;;;;;19.55;15.10;;;12.80;99.90;;;;;;5057082;28;20098;-95
2023/01/04 12:33:49;;;;;;;17.20;14.90;;;12.70;99.90;;;;;;5055274;28;20029;-95
2023/01/04 12:36:20;;;;;;;18.85;15.07;;;12.80;99.90;;;;;;5056264;28;20548;-95
2023/01/04 12:38:56;;;;;;;19.10;15.30;;;12.80;99.90;;;;;;5055119;28;20167;-95
2023/01/04 12:41:59;;;;;;;18.10;14.00;;;12.80;99.90;;;;;;5055227;28;20021;-95
2023/01/04 12:44:39;;;;;;;14.57;12.30;;;13.10;99.90;;;;;;4998084;28;20041;-95
2023/01/04 12:50:07;;;;;;;13.45;11.13;;;14.10;99.90;;;;;;5014977;28;20133;-96
2023/01/04 12:52:33;;;;;;;14.02;11.50;;;14.60;99.90;;;;;;5014400;28;20046;-95
2023/01/04 12:55:04;;;;;;;12.80;11.25;;;15.30;99.90;;;;;;4997713;28;20431;-95
2023/01/04 12:57:37;;;;;;;15.98;11.85;;;15.00;99.90;;;;;;5014318;28;20021;-95
2023/01/04 13:00:11;;;;;;;17.00;12.25;;;14.80;99.90;;;;;;5014145;28;20105;-95
2023/01/04 13:02:50;;;;;;;15.27;11.93;;;15.20;99.90;;;;;;4997855;28;20117;-95
2023/01/04 13:05:16;;;;;;;13.00;11.25;;;15.60;99.90;;;;;;5014525;28;20030;-95
2023/01/04 13:07:49;;;;;;;14.88;11.98;;;16.50;99.90;;;;;;5014213;28;20045;-95
2023/01/04 13:10:18;;;;;;;14.15;11.60;;;16.60;99.90;;;;;;4997941;28;20034;-96
2023/01/04 13:13:04;;;;;;;16.15;12.27;;;16.60;99.90;;;;;;5014182;28;20522;-95
2023/01/04 13:16:03;;;;;;;15.98;13.73;;;16.40;99.90;;;;;;5013515;28;20091;-96
2023/01/04 13:18:40;;;;;;;15.57;12.68;;;15.70;99.90;;;;;;5014200;28;20080;-95
2023/01/04 13:21:30;;;;;;;16.15;13.50;;;15.20;99.90;;;;;;5032755;28;20040;-95
2023/01/04 13:23:59;;;;;;;17.10;14.35;;;14.80;99.90;;;;;;5055631;28;20021;-95
2023/01/04 13:26:35;;;;;;;17.25;14.52;;;14.60;99.90;;;;;;5055510;28;20031;-95
2023/01/04 13:29:07;;;;;;;15.57;13.88;;;13.90;99.90;;;;;;5055113;28;20032;-95
2023/01/04 13:31:52;;;;;;;16.33;14.35;;;13.60;99.90;;;;;;5054225;28;20556;-95
2023/01/04 13:34:27;;;;;;;18.88;14.10;;;13.60;99.90;;;;;;5055190;28;20032;-95
2023/01/04 13:37:03;;;;;;;16.63;14.63;;;13.40;99.90;;;;;;5055358;28;20021;-95
2023/01/04 13:39:29;;;;;;;17.63;15.70;;;13.40;99.90;;;;;;5055055;28;20017;-95
2023/01/04 13:41:56;;;;;;;17.10;15.30;;;13.20;99.90;;;;;;5055219;28;20052;-95
2023/01/04 13:44:47;;;;;;;18.10;14.57;;;13.20;99.90;;;;;;5055229;28;20024;-95
2023/01/04 13:47:13;;;;;;;17.92;15.40;;;13.10;99.90;;;;;;5055409;28;20025;-94
2023/01/04 13:49:39;;;;;;;17.08;14.45;;;13.20;99.90;;;;;;5054726;28;20021;-95